sensor_id;sensor_type;location;lat;lon;timestamp;temperature;humidity
76857;DHT22;69705;44.686;37.628;2023-11-21T00:01:06;5.21;92.69
76857;DHT22;69705;44.686;37.628;2023-11-21T00:03:35;5.27;92.35
76857;DHT22;69705;44.686;37.628;2023-11-21T00:06:02;5.28;92.77
76857;DHT22;69705;44.686;37.628;2023-11-21T00:08:29;5.31;92.64
76857;DHT22;69705;44.686;37.628;2023-11-21T00:10:56;5.35;93.56
76857;DHT22;69705;44.686;37.628;2023-11-21T00:13:23;5.33;91.72
76857;DHT22;69705;44.686;37.628;2023-11-21T00:15:50;5.33;93.17
76857;DHT22;69705;44.686;37.628;2023-11-21T00:18:17;5.40;92.85
76857;DHT22;69705;44.686;37.628;2023-11-21T00:20:44;5.39;92.18
76857;DHT22;69705;44.686;37.628;2023-11-21T00:23:11;5.40;93.36
76857;DHT22;69705;44.686;37.628;2023-11-21T00:25:37;5.41;93.18
76857;DHT22;69705;44.686;37.628;2023-11-21T00:28:04;5.43;92.63
76857;DHT22;69705;44.686;37.628;2023-11-21T00:30:32;5.43;92.24
76857;DHT22;69705;44.686;37.628;2023-11-21T00:32:59;5.45;92.21
76857;DHT22;69705;44.686;37.628;2023-11-21T00:35:26;5.50;93.20
76857;DHT22;69705;44.686;37.628;2023-11-21T00:37:54;5.47;90.86
76857;DHT22;69705;44.686;37.628;2023-11-21T00:40:21;5.48;92.34
76857;DHT22;69705;44.686;37.628;2023-11-21T00:42:48;5.51;92.43
76857;DHT22;69705;44.686;37.628;2023-11-21T00:45:15;5.51;93.32
76857;DHT22;69705;44.686;37.628;2023-11-21T00:47:42;5.51;92.05
76857;DHT22;69705;44.686;37.628;2023-11-21T00:50:11;5.55;93.08
76857;DHT22;69705;44.686;37.628;2023-11-21T00:52:38;5.60;92.64
76857;DHT22;69705;44.686;37.628;2023-11-21T00:55:05;5.61;92.49
76857;DHT22;69705;44.686;37.628;2023-11-21T00:57:34;5.65;92.43
76857;DHT22;69705;44.686;37.628;2023-11-21T01:00:01;5.66;92.11
76857;DHT22;69705;44.686;37.628;2023-11-21T01:02:28;5.70;92.68
76857;DHT22;69705;44.686;37.628;2023-11-21T01:04:55;5.65;92.14
76857;DHT22;69705;44.686;37.628;2023-11-21T01:07:22;5.57;90.65
76857;DHT22;69705;44.686;37.628;2023-11-21T01:09:48;5.57;91.15
76857;DHT22;69705;44.686;37.628;2023-11-21T01:12:15;5.61;91.38
76857;DHT22;69705;44.686;37.628;2023-11-21T01:14:43;5.59;90.73
76857;DHT22;69705;44.686;37.628;2023-11-21T01:17:11;5.52;90.76
76857;DHT22;69705;44.686;37.628;2023-11-21T01:19:38;5.61;93.55
76857;DHT22;69705;44.686;37.628;2023-11-21T01:22:04;5.64;91.06
76857;DHT22;69705;44.686;37.628;2023-11-21T01:24:32;5.64;89.97
76857;DHT22;69705;44.686;37.628;2023-11-21T01:26:59;5.65;92.66
76857;DHT22;69705;44.686;37.628;2023-11-21T01:29:25;5.65;91.34
76857;DHT22;69705;44.686;37.628;2023-11-21T01:31:52;5.72;93.07
76857;DHT22;69705;44.686;37.628;2023-11-21T01:34:18;5.68;90.36
76857;DHT22;69705;44.686;37.628;2023-11-21T01:36:46;5.72;92.21
76857;DHT22;69705;44.686;37.628;2023-11-21T01:39:13;5.83;93.39
76857;DHT22;69705;44.686;37.628;2023-11-21T01:41:42;5.84;93.46
76857;DHT22;69705;44.686;37.628;2023-11-21T01:44:10;5.84;92.34
76857;DHT22;69705;44.686;37.628;2023-11-21T01:46:36;5.82;92.05
76857;DHT22;69705;44.686;37.628;2023-11-21T01:49:05;5.84;92.40
76857;DHT22;69705;44.686;37.628;2023-11-21T01:51:32;5.90;92.86
76857;DHT22;69705;44.686;37.628;2023-11-21T01:53:59;5.84;92.76
76857;DHT22;69705;44.686;37.628;2023-11-21T01:56:25;5.82;91.56
76857;DHT22;69705;44.686;37.628;2023-11-21T01:58:52;5.81;92.75
76857;DHT22;69705;44.686;37.628;2023-11-21T02:01:20;5.82;92.70
76857;DHT22;69705;44.686;37.628;2023-11-21T02:03:46;5.72;90.05
76857;DHT22;69705;44.686;37.628;2023-11-21T02:06:14;5.69;89.81
76857;DHT22;69705;44.686;37.628;2023-11-21T02:08:41;5.75;91.62
76857;DHT22;69705;44.686;37.628;2023-11-21T02:11:11;5.78;91.82
76857;DHT22;69705;44.686;37.628;2023-11-21T02:13:40;5.76;90.98
76857;DHT22;69705;44.686;37.628;2023-11-21T02:16:10;5.89;92.01
76857;DHT22;69705;44.686;37.628;2023-11-21T02:18:39;5.85;91.04
76857;DHT22;69705;44.686;37.628;2023-11-21T02:21:06;5.84;91.47
76857;DHT22;69705;44.686;37.628;2023-11-21T02:23:33;5.86;90.92
76857;DHT22;69705;44.686;37.628;2023-11-21T02:25:59;5.94;92.37
76857;DHT22;69705;44.686;37.628;2023-11-21T02:28:30;5.91;91.05
76857;DHT22;69705;44.686;37.628;2023-11-21T02:30:57;5.81;90.49
76857;DHT22;69705;44.686;37.628;2023-11-21T02:33:25;5.86;92.05
76857;DHT22;69705;44.686;37.628;2023-11-21T02:35:52;5.81;91.55
76857;DHT22;69705;44.686;37.628;2023-11-21T02:38:21;5.79;90.12
76857;DHT22;69705;44.686;37.628;2023-11-21T02:40:48;5.72;89.99
76857;DHT22;69705;44.686;37.628;2023-11-21T02:43:15;5.83;91.70
76857;DHT22;69705;44.686;37.628;2023-11-21T02:45:41;5.82;90.95
76857;DHT22;69705;44.686;37.628;2023-11-21T02:48:09;5.87;91.49
76857;DHT22;69705;44.686;37.628;2023-11-21T02:50:35;5.79;89.46
76857;DHT22;69705;44.686;37.628;2023-11-21T02:53:02;5.75;91.34
76857;DHT22;69705;44.686;37.628;2023-11-21T02:55:28;5.82;92.17
76857;DHT22;69705;44.686;37.628;2023-11-21T02:57:55;5.80;91.53
76857;DHT22;69705;44.686;37.628;2023-11-21T03:00:22;5.81;90.38
76857;DHT22;69705;44.686;37.628;2023-11-21T03:02:50;5.83;90.42
76857;DHT22;69705;44.686;37.628;2023-11-21T03:05:17;5.80;89.29
76857;DHT22;69705;44.686;37.628;2023-11-21T03:07:43;5.77;88.84
76857;DHT22;69705;44.686;37.628;2023-11-21T03:10:10;5.79;88.56
76857;DHT22;69705;44.686;37.628;2023-11-21T03:12:38;5.80;90.06
76857;DHT22;69705;44.686;37.628;2023-11-21T03:15:08;5.79;91.03
76857;DHT22;69705;44.686;37.628;2023-11-21T03:17:37;5.79;91.07
76857;DHT22;69705;44.686;37.628;2023-11-21T03:20:05;5.83;91.37
76857;DHT22;69705;44.686;37.628;2023-11-21T03:22:37;5.84;91.04
76857;DHT22;69705;44.686;37.628;2023-11-21T03:25:05;5.84;91.82
76857;DHT22;69705;44.686;37.628;2023-11-21T03:27:32;5.82;90.41
76857;DHT22;69705;44.686;37.628;2023-11-21T03:29:59;5.82;90.55
76857;DHT22;69705;44.686;37.628;2023-11-21T03:32:25;5.79;91.87
76857;DHT22;69705;44.686;37.628;2023-11-21T03:34:56;5.77;89.94
76857;DHT22;69705;44.686;37.628;2023-11-21T03:37:24;5.68;89.46
76857;DHT22;69705;44.686;37.628;2023-11-21T03:39:51;5.74;91.19
76857;DHT22;69705;44.686;37.628;2023-11-21T03:42:17;5.71;90.08
76857;DHT22;69705;44.686;37.628;2023-11-21T03:44:44;5.71;89.49
76857;DHT22;69705;44.686;37.628;2023-11-21T03:47:11;5.71;91.74
76857;DHT22;69705;44.686;37.628;2023-11-21T03:49:39;5.68;90.79
76857;DHT22;69705;44.686;37.628;2023-11-21T03:52:07;5.76;91.38
76857;DHT22;69705;44.686;37.628;2023-11-21T03:54:34;5.71;90.65
76857;DHT22;69705;44.686;37.628;2023-11-21T03:57:02;5.71;91.07
76857;DHT22;69705;44.686;37.628;2023-11-21T03:59:29;5.71;91.27
76857;DHT22;69705;44.686;37.628;2023-11-21T04:01:56;5.70;90.38
76857;DHT22;69705;44.686;37.628;2023-11-21T04:04:23;5.74;89.43
76857;DHT22;69705;44.686;37.628;2023-11-21T04:06:50;5.77;91.03
76857;DHT22;69705;44.686;37.628;2023-11-21T04:09:18;5.81;90.40
76857;DHT22;69705;44.686;37.628;2023-11-21T04:11:45;5.85;91.03
76857;DHT22;69705;44.686;37.628;2023-11-21T04:14:13;5.84;91.06
76857;DHT22;69705;44.686;37.628;2023-11-21T04:16:40;5.80;90.55
76857;DHT22;69705;44.686;37.628;2023-11-21T04:19:08;5.74;88.91
76857;DHT22;69705;44.686;37.628;2023-11-21T04:21:41;5.71;90.31
76857;DHT22;69705;44.686;37.628;2023-11-21T04:24:09;5.75;91.66
76857;DHT22;69705;44.686;37.628;2023-11-21T04:26:36;5.86;90.31
76857;DHT22;69705;44.686;37.628;2023-11-21T04:29:03;5.86;90.88
76857;DHT22;69705;44.686;37.628;2023-11-21T04:31:33;5.89;89.76
76857;DHT22;69705;44.686;37.628;2023-11-21T04:34:00;5.87;90.80
76857;DHT22;69705;44.686;37.628;2023-11-21T04:36:27;5.93;90.94
76857;DHT22;69705;44.686;37.628;2023-11-21T04:38:53;5.97;91.25
76857;DHT22;69705;44.686;37.628;2023-11-21T04:41:20;5.95;90.58
76857;DHT22;69705;44.686;37.628;2023-11-21T04:43:47;5.99;91.43
76857;DHT22;69705;44.686;37.628;2023-11-21T04:46:14;5.96;90.15
76857;DHT22;69705;44.686;37.628;2023-11-21T04:48:41;5.97;89.93
76857;DHT22;69705;44.686;37.628;2023-11-21T04:51:08;6.00;91.21
76857;DHT22;69705;44.686;37.628;2023-11-21T04:53:35;6.01;90.37
76857;DHT22;69705;44.686;37.628;2023-11-21T04:56:04;6.07;89.15
76857;DHT22;69705;44.686;37.628;2023-11-21T04:58:31;6.04;89.59
76857;DHT22;69705;44.686;37.628;2023-11-21T05:00:59;5.98;89.39
76857;DHT22;69705;44.686;37.628;2023-11-21T05:03:26;6.00;90.05
76857;DHT22;69705;44.686;37.628;2023-11-21T05:05:53;5.98;88.92
76857;DHT22;69705;44.686;37.628;2023-11-21T05:08:20;5.97;89.34
76857;DHT22;69705;44.686;37.628;2023-11-21T05:10:48;6.02;90.65
76857;DHT22;69705;44.686;37.628;2023-11-21T05:13:16;6.01;90.20
76857;DHT22;69705;44.686;37.628;2023-11-21T05:15:44;6.01;90.05
76857;DHT22;69705;44.686;37.628;2023-11-21T05:18:11;5.95;89.56
76857;DHT22;69705;44.686;37.628;2023-11-21T05:20:40;5.95;89.67
76857;DHT22;69705;44.686;37.628;2023-11-21T05:23:07;5.91;89.80
76857;DHT22;69705;44.686;37.628;2023-11-21T05:25:34;6.00;91.05
76857;DHT22;69705;44.686;37.628;2023-11-21T05:28:01;6.07;90.89
76857;DHT22;69705;44.686;37.628;2023-11-21T05:30:29;6.06;89.93
76857;DHT22;69705;44.686;37.628;2023-11-21T05:32:56;6.11;89.66
76857;DHT22;69705;44.686;37.628;2023-11-21T05:35:23;6.06;88.43
76857;DHT22;69705;44.686;37.628;2023-11-21T05:37:50;6.05;89.93
76857;DHT22;69705;44.686;37.628;2023-11-21T05:40:16;6.08;89.91
76857;DHT22;69705;44.686;37.628;2023-11-21T05:42:44;6.07;89.75
76857;DHT22;69705;44.686;37.628;2023-11-21T05:45:11;6.09;90.46
76857;DHT22;69705;44.686;37.628;2023-11-21T05:47:42;6.13;90.49
76857;DHT22;69705;44.686;37.628;2023-11-21T05:50:10;6.15;89.33
76857;DHT22;69705;44.686;37.628;2023-11-21T05:52:39;6.17;89.92
76857;DHT22;69705;44.686;37.628;2023-11-21T05:55:09;6.19;90.46
76857;DHT22;69705;44.686;37.628;2023-11-21T05:57:38;6.13;89.16
76857;DHT22;69705;44.686;37.628;2023-11-21T06:00:12;6.12;89.08
76857;DHT22;69705;44.686;37.628;2023-11-21T06:02:49;6.15;90.98
76857;DHT22;69705;44.686;37.628;2023-11-21T06:05:18;6.14;89.20
76857;DHT22;69705;44.686;37.628;2023-11-21T06:07:46;6.13;90.93
76857;DHT22;69705;44.686;37.628;2023-11-21T06:10:12;6.11;89.92
76857;DHT22;69705;44.686;37.628;2023-11-21T06:12:41;6.16;90.70
76857;DHT22;69705;44.686;37.628;2023-11-21T06:15:10;6.12;88.48
76857;DHT22;69705;44.686;37.628;2023-11-21T06:17:41;6.17;90.55
76857;DHT22;69705;44.686;37.628;2023-11-21T06:20:11;6.16;89.88
76857;DHT22;69705;44.686;37.628;2023-11-21T06:22:42;6.20;88.73
76857;DHT22;69705;44.686;37.628;2023-11-21T06:25:10;6.20;88.80
76857;DHT22;69705;44.686;37.628;2023-11-21T06:27:41;6.23;89.29
76857;DHT22;69705;44.686;37.628;2023-11-21T06:30:08;6.16;89.07
76857;DHT22;69705;44.686;37.628;2023-11-21T06:32:36;6.17;89.34
76857;DHT22;69705;44.686;37.628;2023-11-21T06:35:04;6.22;88.86
76857;DHT22;69705;44.686;37.628;2023-11-21T06:37:32;6.26;89.50
76857;DHT22;69705;44.686;37.628;2023-11-21T06:40:00;6.30;88.54
76857;DHT22;69705;44.686;37.628;2023-11-21T06:42:27;6.28;86.93
76857;DHT22;69705;44.686;37.628;2023-11-21T06:44:55;6.27;87.48
76857;DHT22;69705;44.686;37.628;2023-11-21T06:47:25;6.28;89.50
76857;DHT22;69705;44.686;37.628;2023-11-21T06:49:52;6.23;89.79
76857;DHT22;69705;44.686;37.628;2023-11-21T06:52:19;6.23;89.19
76857;DHT22;69705;44.686;37.628;2023-11-21T06:54:47;6.28;88.91
76857;DHT22;69705;44.686;37.628;2023-11-21T06:57:15;6.30;88.10
76857;DHT22;69705;44.686;37.628;2023-11-21T06:59:42;6.26;88.31
76857;DHT22;69705;44.686;37.628;2023-11-21T07:02:09;6.26;87.72
76857;DHT22;69705;44.686;37.628;2023-11-21T07:04:36;6.24;87.73
76857;DHT22;69705;44.686;37.628;2023-11-21T07:07:03;6.27;87.76
76857;DHT22;69705;44.686;37.628;2023-11-21T07:09:30;6.33;88.99
76857;DHT22;69705;44.686;37.628;2023-11-21T07:11:59;6.33;89.33
76857;DHT22;69705;44.686;37.628;2023-11-21T07:14:26;6.34;89.25
76857;DHT22;69705;44.686;37.628;2023-11-21T07:16:52;6.36;88.85
76857;DHT22;69705;44.686;37.628;2023-11-21T07:19:20;6.38;87.32
76857;DHT22;69705;44.686;37.628;2023-11-21T07:21:48;6.46;88.05
76857;DHT22;69705;44.686;37.628;2023-11-21T07:24:17;6.40;87.48
76857;DHT22;69705;44.686;37.628;2023-11-21T07:26:44;6.44;87.70
76857;DHT22;69705;44.686;37.628;2023-11-21T07:29:10;6.43;89.41
76857;DHT22;69705;44.686;37.628;2023-11-21T07:31:37;6.50;89.23
76857;DHT22;69705;44.686;37.628;2023-11-21T07:34:04;6.48;87.28
76857;DHT22;69705;44.686;37.628;2023-11-21T07:36:31;6.44;87.77
76857;DHT22;69705;44.686;37.628;2023-11-21T07:38:57;6.43;88.13
76857;DHT22;69705;44.686;37.628;2023-11-21T07:41:24;6.39;86.86
76857;DHT22;69705;44.686;37.628;2023-11-21T07:43:51;6.39;87.79
76857;DHT22;69705;44.686;37.628;2023-11-21T07:46:17;6.35;87.57
76857;DHT22;69705;44.686;37.628;2023-11-21T07:48:44;6.35;87.17
76857;DHT22;69705;44.686;37.628;2023-11-21T07:51:12;6.36;86.51
76857;DHT22;69705;44.686;37.628;2023-11-21T07:53:39;6.29;86.24
76857;DHT22;69705;44.686;37.628;2023-11-21T07:56:08;6.26;86.86
76857;DHT22;69705;44.686;37.628;2023-11-21T07:58:36;6.21;85.96
76857;DHT22;69705;44.686;37.628;2023-11-21T08:01:03;6.21;86.22
76857;DHT22;69705;44.686;37.628;2023-11-21T08:03:31;6.17;85.61
76857;DHT22;69705;44.686;37.628;2023-11-21T08:05:58;6.20;87.81
76857;DHT22;69705;44.686;37.628;2023-11-21T08:08:26;6.24;85.34
76857;DHT22;69705;44.686;37.628;2023-11-21T08:10:54;6.23;84.72
76857;DHT22;69705;44.686;37.628;2023-11-21T08:13:25;6.20;86.21
76857;DHT22;69705;44.686;37.628;2023-11-21T08:15:56;6.22;84.90
76857;DHT22;69705;44.686;37.628;2023-11-21T08:18:24;6.29;85.19
76857;DHT22;69705;44.686;37.628;2023-11-21T08:20:51;6.44;85.48
76857;DHT22;69705;44.686;37.628;2023-11-21T08:23:18;6.54;85.51
76857;DHT22;69705;44.686;37.628;2023-11-21T08:25:46;6.63;83.40
76857;DHT22;69705;44.686;37.628;2023-11-21T08:28:13;6.66;84.97
76857;DHT22;69705;44.686;37.628;2023-11-21T08:30:43;6.66;84.29
76857;DHT22;69705;44.686;37.628;2023-11-21T08:33:10;6.70;83.36
76857;DHT22;69705;44.686;37.628;2023-11-21T08:35:38;6.69;84.43
76857;DHT22;69705;44.686;37.628;2023-11-21T08:38:05;6.76;84.96
76857;DHT22;69705;44.686;37.628;2023-11-21T08:40:32;6.81;84.45
76857;DHT22;69705;44.686;37.628;2023-11-21T08:42:59;6.82;83.90
76857;DHT22;69705;44.686;37.628;2023-11-21T08:45:26;6.88;84.40
76857;DHT22;69705;44.686;37.628;2023-11-21T08:47:53;6.96;82.99
76857;DHT22;69705;44.686;37.628;2023-11-21T08:50:20;6.94;82.36
76857;DHT22;69705;44.686;37.628;2023-11-21T08:52:47;6.94;83.10
76857;DHT22;69705;44.686;37.628;2023-11-21T08:55:14;7.01;84.64
76857;DHT22;69705;44.686;37.628;2023-11-21T08:57:44;7.13;83.64
76857;DHT22;69705;44.686;37.628;2023-11-21T09:00:13;7.14;83.94
76857;DHT22;69705;44.686;37.628;2023-11-21T09:02:44;7.17;83.63
76857;DHT22;69705;44.686;37.628;2023-11-21T09:05:12;7.12;82.66
76857;DHT22;69705;44.686;37.628;2023-11-21T09:07:41;7.24;84.43
76857;DHT22;69705;44.686;37.628;2023-11-21T09:10:08;7.39;82.75
76857;DHT22;69705;44.686;37.628;2023-11-21T09:12:36;7.73;83.23
76857;DHT22;69705;44.686;37.628;2023-11-21T09:15:05;8.20;81.04
76857;DHT22;69705;44.686;37.628;2023-11-21T09:17:32;8.68;79.80
76857;DHT22;69705;44.686;37.628;2023-11-21T09:20:00;8.95;76.50
76857;DHT22;69705;44.686;37.628;2023-11-21T09:22:27;9.24;75.72
76857;DHT22;69705;44.686;37.628;2023-11-21T09:24:56;9.35;75.30
76857;DHT22;69705;44.686;37.628;2023-11-21T09:27:24;9.51;74.38
76857;DHT22;69705;44.686;37.628;2023-11-21T09:29:52;9.46;75.55
76857;DHT22;69705;44.686;37.628;2023-11-21T09:32:20;9.26;73.46
76857;DHT22;69705;44.686;37.628;2023-11-21T09:34:49;8.95;75.07
76857;DHT22;69705;44.686;37.628;2023-11-21T09:37:16;8.91;77.86
76857;DHT22;69705;44.686;37.628;2023-11-21T09:39:43;8.94;76.57
76857;DHT22;69705;44.686;37.628;2023-11-21T09:42:17;8.90;78.69
76857;DHT22;69705;44.686;37.628;2023-11-21T09:45:09;8.75;77.39
76857;DHT22;69705;44.686;37.628;2023-11-21T09:47:40;8.98;77.56
76857;DHT22;69705;44.686;37.628;2023-11-21T09:50:07;9.24;77.14
76857;DHT22;69705;44.686;37.628;2023-11-21T09:55:18;9.51;75.73
76857;DHT22;69705;44.686;37.628;2023-11-21T09:57:48;9.50;74.38
76857;DHT22;69705;44.686;37.628;2023-11-21T10:00:18;9.36;73.75
76857;DHT22;69705;44.686;37.628;2023-11-21T10:02:47;9.11;74.61
76857;DHT22;69705;44.686;37.628;2023-11-21T10:05:16;8.95;75.97
76857;DHT22;69705;44.686;37.628;2023-11-21T10:07:44;9.03;76.79
76857;DHT22;69705;44.686;37.628;2023-11-21T10:10:12;9.63;76.43
76857;DHT22;69705;44.686;37.628;2023-11-21T10:12:41;9.46;74.71
76857;DHT22;69705;44.686;37.628;2023-11-21T10:15:11;9.71;73.46
76857;DHT22;69705;44.686;37.628;2023-11-21T10:17:43;9.65;72.76
76857;DHT22;69705;44.686;37.628;2023-11-21T10:20:11;10.03;78.63
76857;DHT22;69705;44.686;37.628;2023-11-21T10:22:40;10.19;73.11
76857;DHT22;69705;44.686;37.628;2023-11-21T10:25:12;10.26;72.32
76857;DHT22;69705;44.686;37.628;2023-11-21T10:27:41;10.27;71.82
76857;DHT22;69705;44.686;37.628;2023-11-21T10:30:10;10.08;70.67
76857;DHT22;69705;44.686;37.628;2023-11-21T10:32:42;9.92;69.20
76857;DHT22;69705;44.686;37.628;2023-11-21T10:35:09;9.89;72.25
76857;DHT22;69705;44.686;37.628;2023-11-21T10:37:40;10.01;71.18
76857;DHT22;69705;44.686;37.628;2023-11-21T10:40:08;9.92;70.24
76857;DHT22;69705;44.686;37.628;2023-11-21T10:42:39;9.93;70.87
76857;DHT22;69705;44.686;37.628;2023-11-21T10:45:07;9.94;73.26
76857;DHT22;69705;44.686;37.628;2023-11-21T10:47:41;9.78;72.93
76857;DHT22;69705;44.686;37.628;2023-11-21T10:50:09;9.54;72.75
76857;DHT22;69705;44.686;37.628;2023-11-21T10:52:39;9.52;70.75
76857;DHT22;69705;44.686;37.628;2023-11-21T10:55:22;9.86;73.13
76857;DHT22;69705;44.686;37.628;2023-11-21T10:57:53;10.29;69.74
76857;DHT22;69705;44.686;37.628;2023-11-21T11:00:20;10.27;65.67
76857;DHT22;69705;44.686;37.628;2023-11-21T11:02:50;10.62;71.02
76857;DHT22;69705;44.686;37.628;2023-11-21T11:05:21;10.70;67.67
76857;DHT22;69705;44.686;37.628;2023-11-21T11:07:50;10.83;66.03
76857;DHT22;69705;44.686;37.628;2023-11-21T11:10:21;10.68;64.30
76857;DHT22;69705;44.686;37.628;2023-11-21T11:12:49;10.62;63.92
76857;DHT22;69705;44.686;37.628;2023-11-21T11:15:19;10.43;58.45
76857;DHT22;69705;44.686;37.628;2023-11-21T11:17:46;10.48;61.05
76857;DHT22;69705;44.686;37.628;2023-11-21T11:20:14;10.37;63.79
76857;DHT22;69705;44.686;37.628;2023-11-21T11:28:49;10.82;66.09
76857;DHT22;69705;44.686;37.628;2023-11-21T11:31:29;10.71;58.24
76857;DHT22;69705;44.686;37.628;2023-11-21T11:34:14;10.22;59.25
76857;DHT22;69705;44.686;37.628;2023-11-21T11:36:48;10.19;65.78
76857;DHT22;69705;44.686;37.628;2023-11-21T11:42:03;10.43;64.05
76857;DHT22;69705;44.686;37.628;2023-11-21T11:47:22;9.91;60.19
76857;DHT22;69705;44.686;37.628;2023-11-21T11:52:43;9.90;61.28
76857;DHT22;69705;44.686;37.628;2023-11-21T11:55:20;9.93;63.69
76857;DHT22;69705;44.686;37.628;2023-11-21T12:00:35;9.84;61.58
76857;DHT22;69705;44.686;37.628;2023-11-21T12:03:07;9.69;59.86
76857;DHT22;69705;44.686;37.628;2023-11-21T12:05:35;9.66;64.80
76857;DHT22;69705;44.686;37.628;2023-11-21T12:08:06;9.52;62.19
76857;DHT22;69705;44.686;37.628;2023-11-21T12:10:34;9.44;61.31
76857;DHT22;69705;44.686;37.628;2023-11-21T12:13:06;9.33;64.47
76857;DHT22;69705;44.686;37.628;2023-11-21T12:15:36;9.25;63.82
76857;DHT22;69705;44.686;37.628;2023-11-21T12:18:03;9.26;67.03
76857;DHT22;69705;44.686;37.628;2023-11-21T12:20:30;9.29;64.89
76857;DHT22;69705;44.686;37.628;2023-11-21T12:22:58;9.33;67.10
76857;DHT22;69705;44.686;37.628;2023-11-21T12:25:30;9.33;66.53
76857;DHT22;69705;44.686;37.628;2023-11-21T12:28:01;9.32;67.58
76857;DHT22;69705;44.686;37.628;2023-11-21T12:30:31;9.22;67.27
76857;DHT22;69705;44.686;37.628;2023-11-21T12:32:59;9.23;71.48
76857;DHT22;69705;44.686;37.628;2023-11-21T12:35:28;9.12;69.52
76857;DHT22;69705;44.686;37.628;2023-11-21T12:37:56;9.02;68.25
76857;DHT22;69705;44.686;37.628;2023-11-21T12:40:26;8.89;68.67
76857;DHT22;69705;44.686;37.628;2023-11-21T12:42:55;8.78;68.46
76857;DHT22;69705;44.686;37.628;2023-11-21T12:45:23;8.67;68.33
76857;DHT22;69705;44.686;37.628;2023-11-21T12:48:00;8.63;68.75
76857;DHT22;69705;44.686;37.628;2023-11-21T12:50:30;8.56;69.22
76857;DHT22;69705;44.686;37.628;2023-11-21T12:53:04;8.44;71.99
76857;DHT22;69705;44.686;37.628;2023-11-21T12:55:32;8.46;70.79
76857;DHT22;69705;44.686;37.628;2023-11-21T12:58:01;8.46;70.52
76857;DHT22;69705;44.686;37.628;2023-11-21T13:00:44;8.36;71.80
76857;DHT22;69705;44.686;37.628;2023-11-21T13:03:13;8.32;70.27
76857;DHT22;69705;44.686;37.628;2023-11-21T13:05:44;8.24;72.92
76857;DHT22;69705;44.686;37.628;2023-11-21T13:08:13;8.14;72.09
76857;DHT22;69705;44.686;37.628;2023-11-21T13:10:41;8.06;72.87
76857;DHT22;69705;44.686;37.628;2023-11-21T13:13:11;8.04;73.51
76857;DHT22;69705;44.686;37.628;2023-11-21T13:15:49;8.01;75.93
76857;DHT22;69705;44.686;37.628;2023-11-21T13:18:16;8.04;73.88
76857;DHT22;69705;44.686;37.628;2023-11-21T13:20:43;8.01;72.92
76857;DHT22;69705;44.686;37.628;2023-11-21T13:23:10;8.02;74.27
76857;DHT22;69705;44.686;37.628;2023-11-21T13:25:43;8.02;74.96
76857;DHT22;69705;44.686;37.628;2023-11-21T13:28:11;8.02;73.96
76857;DHT22;69705;44.686;37.628;2023-11-21T13:30:38;8.04;74.41
76857;DHT22;69705;44.686;37.628;2023-11-21T13:33:07;8.00;76.75
76857;DHT22;69705;44.686;37.628;2023-11-21T13:35:35;7.96;73.73
76857;DHT22;69705;44.686;37.628;2023-11-21T13:38:10;7.92;74.70
76857;DHT22;69705;44.686;37.628;2023-11-21T13:40:38;7.84;73.30
76857;DHT22;69705;44.686;37.628;2023-11-21T13:43:14;7.85;74.64
76857;DHT22;69705;44.686;37.628;2023-11-21T13:45:42;7.83;74.24
76857;DHT22;69705;44.686;37.628;2023-11-21T13:48:10;7.82;75.01
76857;DHT22;69705;44.686;37.628;2023-11-21T13:50:37;7.75;75.89
76857;DHT22;69705;44.686;37.628;2023-11-21T13:53:05;7.75;76.77
76857;DHT22;69705;44.686;37.628;2023-11-21T13:55:44;7.70;75.29
76857;DHT22;69705;44.686;37.628;2023-11-21T13:58:12;7.69;76.25
76857;DHT22;69705;44.686;37.628;2023-11-21T14:00:45;7.69;76.51
76857;DHT22;69705;44.686;37.628;2023-11-21T14:03:13;7.71;75.36
76857;DHT22;69705;44.686;37.628;2023-11-21T14:05:48;7.72;76.41
76857;DHT22;69705;44.686;37.628;2023-11-21T14:08:19;7.69;77.24
76857;DHT22;69705;44.686;37.628;2023-11-21T14:10:47;7.63;75.93
76857;DHT22;69705;44.686;37.628;2023-11-21T14:13:21;7.57;77.04
76857;DHT22;69705;44.686;37.628;2023-11-21T14:15:50;7.53;77.92
76857;DHT22;69705;44.686;37.628;2023-11-21T14:18:18;7.53;78.86
76857;DHT22;69705;44.686;37.628;2023-11-21T14:20:53;7.57;76.62
76857;DHT22;69705;44.686;37.628;2023-11-21T14:23:21;7.54;75.47
76857;DHT22;69705;44.686;37.628;2023-11-21T14:25:49;7.46;74.24
76857;DHT22;69705;44.686;37.628;2023-11-21T14:28:17;7.46;75.68
76857;DHT22;69705;44.686;37.628;2023-11-21T14:30:48;7.43;76.08
76857;DHT22;69705;44.686;37.628;2023-11-21T14:33:15;7.42;77.56
76857;DHT22;69705;44.686;37.628;2023-11-21T14:35:43;7.47;76.90
76857;DHT22;69705;44.686;37.628;2023-11-21T14:38:10;7.48;76.84
76857;DHT22;69705;44.686;37.628;2023-11-21T14:40:37;7.48;77.11
76857;DHT22;69705;44.686;37.628;2023-11-21T14:43:04;7.45;77.36
76857;DHT22;69705;44.686;37.628;2023-11-21T14:45:34;7.43;78.45
76857;DHT22;69705;44.686;37.628;2023-11-21T14:48:01;7.38;79.72
76857;DHT22;69705;44.686;37.628;2023-11-21T14:50:33;7.30;78.61
76857;DHT22;69705;44.686;37.628;2023-11-21T14:53:15;7.26;79.70
76857;DHT22;69705;44.686;37.628;2023-11-21T14:55:47;7.24;76.31
76857;DHT22;69705;44.686;37.628;2023-11-21T14:58:20;7.20;78.05
76857;DHT22;69705;44.686;37.628;2023-11-21T15:00:56;7.30;78.27
76857;DHT22;69705;44.686;37.628;2023-11-21T15:03:28;7.28;78.99
76857;DHT22;69705;44.686;37.628;2023-11-21T15:06:02;7.29;78.53
76857;DHT22;69705;44.686;37.628;2023-11-21T15:08:51;7.30;77.78
76857;DHT22;69705;44.686;37.628;2023-11-21T15:11:34;7.26;79.59
76857;DHT22;69705;44.686;37.628;2023-11-21T15:14:01;7.22;78.71
76857;DHT22;69705;44.686;37.628;2023-11-21T15:16:34;7.19;78.38
76857;DHT22;69705;44.686;37.628;2023-11-21T15:19:05;7.18;79.30
76857;DHT22;69705;44.686;37.628;2023-11-21T15:21:32;7.16;79.40
76857;DHT22;69705;44.686;37.628;2023-11-21T15:23:59;7.11;75.99
76857;DHT22;69705;44.686;37.628;2023-11-21T15:26:25;7.20;78.63
76857;DHT22;69705;44.686;37.628;2023-11-21T15:28:53;7.29;78.92
76857;DHT22;69705;44.686;37.628;2023-11-21T15:31:19;7.40;79.55
76857;DHT22;69705;44.686;37.628;2023-11-21T15:33:51;7.46;79.09
76857;DHT22;69705;44.686;37.628;2023-11-21T15:36:19;7.49;79.40
76857;DHT22;69705;44.686;37.628;2023-11-21T15:38:47;7.55;78.20
76857;DHT22;69705;44.686;37.628;2023-11-21T15:41:13;7.57;77.79
76857;DHT22;69705;44.686;37.628;2023-11-21T15:43:40;7.56;76.05
76857;DHT22;69705;44.686;37.628;2023-11-21T15:46:07;7.54;77.00
76857;DHT22;69705;44.686;37.628;2023-11-21T15:48:35;7.40;79.59
76857;DHT22;69705;44.686;37.628;2023-11-21T15:51:02;7.24;75.63
76857;DHT22;69705;44.686;37.628;2023-11-21T15:53:31;7.24;79.27
76857;DHT22;69705;44.686;37.628;2023-11-21T15:55:58;7.19;81.23
76857;DHT22;69705;44.686;37.628;2023-11-21T15:58:26;7.07;77.76